Puerto Lempira, Honduras
Current Conditions -  °F | °C
As of 3:00 PM on Thursday 23 Oct 2014 (Local Time) from MHCA Reporting Station
Scattered Clouds Scattered Clouds  
Wind Chill: 90°   Ceiling: Unl
Heat Index: 93°   Visibility: 6mi
Dew Point: 68°   Wind: 8mph
Humidity: 49%   Direction: 200°SSW
Pressure: 29.8"   Gusts: NA
Location:  15.26°N, 83.79°W
Report Text: MHCA 232100Z 20007KT 9999 SCT030TCU SCT080 32/20 Q1009
Loading
Personal Weather Stations






























Interactive Weather Map
Tropical Storm Tracking
New forecast layout! Learn more

10-Day Weather Forecast

Advertisements
Track Severe Weather on mobile